Aviation Digital Data Service (ADDS)

Output produced by TAFs form (0356 UTC 22 August 2014)
found at http://aviationweather.gov/adds/tafs/
 
KTCS 220246Z 2203/2224 22010KT P6SM SCT060 SCT250 
     FM220500 26010KT P6SM VCSH SCT060 BKN150 
     TEMPO 2205/2209 6SM -SHRA SCT020 BKN050 
     FM221000 28011KT P6SM -SHRA FEW005 BKN030 OVC060 
     FM221900 14006KT P6SM SCT040 BKN070 OVC110